LST weather

Launceston Airport
Launceston, Tasmania, Australia

Public forecast

Using degrees Celsius for public forecast. Weather courtesy of forecast.io.

METAR (pilot weather report)

Retrieved 2018/10/18 11:39 UTC (2 minutes ago):

YMLT 181139Z AUTO 34012KT 6000 -SHRA OVC005 13/12 Q1013 RF00.0/004.0

TAF (pilot weather forecast)

Retrieved 2018/10/18 06:36 UTC (5 hours ago):

TAF YMLT 180530Z 1806/1906 33014KT 9999 -SHRA SCT010 SCT030 FM181200 34008KT 9999 BKN015 FM182100 34008KT 9999 SCT015 BKN025 FM190000 32010KT 9999 -SHRA SCT020 BKN030 TEMPO 1806/1807 3000 SHRA BKN005 INTER 1807/1809 5000 SHRA SCT005 BKN010